Time;durP1;ratioP1;P1;durP2;ratioP2;P2;SDS_P1;SDS_P2;PMS_P1;PMS_P2;Temp;Humidity;BMP_temperature;BMP_pressure;BME280_temperature;BME280_humidity;BME280_pressure;Samples;Min_cycle;Max_cycle;Signal;HPM_P1;HPM_P2
2023/07/07 00:01:08;;;;;;;3.47;1.90;;;;;;;;;;5050036;28;20470;-84
2023/07/07 00:03:35;;;;;;;2.55;1.73;;;;;;;;;;5062264;28;20025;-84
2023/07/07 00:06:01;;;;;;;3.17;2.00;;;;;;;;;;5046855;28;20032;-83
2023/07/07 00:08:33;;;;;;;2.05;1.60;;;;;;;;;;5051660;28;20021;-84
2023/07/07 00:11:04;;;;;;;3.63;2.42;;;;;;;;;;5049127;28;20041;-84
2023/07/07 00:16:31;;;;;;;2.95;1.70;;;;;;;;;;5009695;28;19940;-84
2023/07/07 00:18:59;;;;;;;2.90;2.00;;;;;;;;;;5044001;28;20056;-83
2023/07/07 00:21:25;;;;;;;3.53;1.92;;;;;;;;;;5047087;28;20045;-84
2023/07/07 00:23:55;;;;;;;3.90;1.95;;;;;;;;;;5049634;28;20052;-84
2023/07/07 00:26:21;;;;;;;4.18;2.22;;;;;;;;;;5052748;28;20036;-83
2023/07/07 00:28:48;;;;;;;2.92;1.80;;;;;;;;;;5056953;28;20036;-84
2023/07/07 00:31:14;;;;;;;3.47;1.73;;;;;;;;;;5037397;28;20080;-84
2023/07/07 00:33:40;;;;;;;1.63;1.52;;;;;;;;;;5038289;28;20021;-84
2023/07/07 00:36:06;;;;;;;3.25;1.98;;;;;;;;;;5038755;28;20017;-84
2023/07/07 00:38:32;;;;;;;3.08;2.13;;;;;;;;;;5057018;28;20020;-84
2023/07/07 00:41:02;;;;;;;2.75;1.60;;;;;;;;;;5048364;28;20040;-84
2023/07/07 00:43:28;;;;;;;2.53;1.90;;;;;;;;;;5049563;28;20622;-84
2023/07/07 00:45:54;;;;;;;3.58;1.80;;;;;;;;;;5050573;28;20475;-84
2023/07/07 00:48:22;;;;;;;4.18;1.85;;;;;;;;;;5051025;28;20025;-84
2023/07/07 00:50:52;;;;;;;3.20;1.67;;;;;;;;;;5051128;28;20024;-84
2023/07/07 00:53:19;;;;;;;4.47;1.93;;;;;;;;;;5044984;28;20061;-84
2023/07/07 00:55:46;;;;;;;3.05;2.10;;;;;;;;;;5049426;28;20288;-85
2023/07/07 00:58:16;;;;;;;5.85;2.10;;;;;;;;;;5050866;28;20578;-85
2023/07/07 01:00:45;;;;;;;3.07;1.80;;;;;;;;;;5051177;28;20365;-85
2023/07/07 01:03:19;;;;;;;3.28;2.13;;;;;;;;;;5050801;28;20040;-84
2023/07/07 01:05:45;;;;;;;3.92;2.10;;;;;;;;;;5050554;28;20104;-86
2023/07/07 01:08:12;;;;;;;3.15;2.25;;;;;;;;;;5050011;28;20060;-85
2023/07/07 01:10:38;;;;;;;3.03;1.80;;;;;;;;;;5049685;28;20029;-84
2023/07/07 01:13:05;;;;;;;3.63;1.92;;;;;;;;;;5048563;28;20118;-85
2023/07/07 01:15:34;;;;;;;2.30;1.70;;;;;;;;;;5055712;28;20029;-85
2023/07/07 01:18:13;;;;;;;1.92;1.45;;;;;;;;;;5054016;28;20040;-85
2023/07/07 01:20:42;;;;;;;2.63;1.83;;;;;;;;;;5052350;28;20463;-85
2023/07/07 01:23:26;;;;;;;4.50;2.03;;;;;;;;;;5048589;28;20060;-84
2023/07/07 01:26:06;;;;;;;2.35;1.83;;;;;;;;;;5062368;28;20183;-85
2023/07/07 01:28:39;;;;;;;2.63;1.63;;;;;;;;;;5045323;28;20099;-85
2023/07/07 01:31:17;;;;;;;3.20;2.00;;;;;;;;;;5054324;28;20078;-85
2023/07/07 01:33:45;;;;;;;3.20;1.75;;;;;;;;;;5054235;28;20059;-85
2023/07/07 01:36:11;;;;;;;2.38;1.67;;;;;;;;;;5046096;28;20044;-85
2023/07/07 01:38:38;;;;;;;3.67;1.55;;;;;;;;;;5057466;28;20451;-85
2023/07/07 01:41:23;;;;;;;2.85;1.90;;;;;;;;;;5048327;28;20029;-85
2023/07/07 01:43:58;;;;;;;2.10;1.70;;;;;;;;;;5052089;28;20070;-85
2023/07/07 01:46:29;;;;;;;2.88;1.58;;;;;;;;;;5054543;28;20108;-85
2023/07/07 01:49:14;;;;;;;2.13;1.60;;;;;;;;;;5046706;28;20111;-84
2023/07/07 01:51:46;;;;;;;3.45;2.00;;;;;;;;;;5050170;28;20408;-84
2023/07/07 01:54:13;;;;;;;1.75;1.33;;;;;;;;;;5061117;28;20027;-85
2023/07/07 01:56:40;;;;;;;3.60;1.83;;;;;;;;;;5056304;28;20527;-85
2023/07/07 01:59:11;;;;;;;2.40;1.80;;;;;;;;;;5044158;28;20026;-85
2023/07/07 02:01:40;;;;;;;2.35;1.65;;;;;;;;;;5046018;28;20032;-85
2023/07/07 02:04:06;;;;;;;2.42;1.50;;;;;;;;;;5043223;28;20030;-84
2023/07/07 02:06:32;;;;;;;2.50;1.58;;;;;;;;;;5055948;28;20024;-85
2023/07/07 02:08:58;;;;;;;3.95;2.08;;;;;;;;;;5052698;28;20094;-85
2023/07/07 02:11:26;;;;;;;3.83;1.73;;;;;;;;;;5047519;28;20029;-85
2023/07/07 02:13:55;;;;;;;1.85;1.70;;;;;;;;;;5048546;28;20023;-85
2023/07/07 02:16:21;;;;;;;3.78;1.88;;;;;;;;;;5051448;28;20222;-85
2023/07/07 02:18:49;;;;;;;2.47;1.70;;;;;;;;;;5054117;28;20156;-85
2023/07/07 02:21:16;;;;;;;3.15;1.73;;;;;;;;;;5043580;28;20084;-85
2023/07/07 02:23:42;;;;;;;2.88;1.42;;;;;;;;;;5057266;28;20318;-85
2023/07/07 02:26:09;;;;;;;3.40;1.92;;;;;;;;;;5044822;28;20035;-85
2023/07/07 02:28:35;;;;;;;2.55;1.58;;;;;;;;;;5048155;28;20490;-84
2023/07/07 02:31:01;;;;;;;4.50;1.98;;;;;;;;;;5048941;28;20025;-85
2023/07/07 02:33:31;;;;;;;2.22;1.92;;;;;;;;;;5045369;28;20024;-85
2023/07/07 02:36:01;;;;;;;3.47;1.85;;;;;;;;;;5043775;28;20107;-85
2023/07/07 02:38:27;;;;;;;2.88;1.30;;;;;;;;;;5043974;28;20059;-85
2023/07/07 02:40:53;;;;;;;2.30;1.40;;;;;;;;;;5046666;28;20025;-85
2023/07/07 02:43:19;;;;;;;1.90;1.45;;;;;;;;;;5037450;28;20591;-84
2023/07/07 02:45:45;;;;;;;2.03;1.70;;;;;;;;;;5046288;28;20025;-85
2023/07/07 02:48:11;;;;;;;3.88;1.70;;;;;;;;;;5037975;28;20010;-85
2023/07/07 02:50:37;;;;;;;1.73;1.35;;;;;;;;;;5045468;28;20013;-85
2023/07/07 02:53:03;;;;;;;1.95;1.30;;;;;;;;;;5054630;28;20025;-85
2023/07/07 02:55:29;;;;;;;2.17;1.48;;;;;;;;;;5047604;28;20488;-85
2023/07/07 02:57:55;;;;;;;1.88;1.55;;;;;;;;;;5048075;28;20087;-85
2023/07/07 03:00:21;;;;;;;2.28;1.40;;;;;;;;;;5040337;28;20029;-85
2023/07/07 03:02:48;;;;;;;1.95;1.60;;;;;;;;;;5043175;28;20029;-85
2023/07/07 03:05:14;;;;;;;3.92;1.38;;;;;;;;;;5039141;28;20034;-86
2023/07/07 03:07:40;;;;;;;1.88;1.42;;;;;;;;;;5045276;28;20488;-85
2023/07/07 03:10:07;;;;;;;1.27;1.10;;;;;;;;;;5040812;28;20052;-85
2023/07/07 03:12:33;;;;;;;1.80;1.13;;;;;;;;;;5040056;28;20049;-85
2023/07/07 03:14:59;;;;;;;2.08;1.48;;;;;;;;;;5042272;28;20037;-85
2023/07/07 03:17:25;;;;;;;2.38;1.15;;;;;;;;;;5057845;28;20028;-84
2023/07/07 03:19:51;;;;;;;2.22;1.33;;;;;;;;;;5047002;28;20033;-84
2023/07/07 03:22:17;;;;;;;1.75;1.38;;;;;;;;;;5043236;28;20507;-85
2023/07/07 03:24:43;;;;;;;1.60;1.20;;;;;;;;;;5052470;28;20032;-85
2023/07/07 03:27:12;;;;;;;1.88;1.48;;;;;;;;;;5046280;28;20108;-85
2023/07/07 03:29:38;;;;;;;1.80;1.20;;;;;;;;;;5042294;28;20029;-85
2023/07/07 03:32:04;;;;;;;1.35;1.25;;;;;;;;;;5041162;28;20060;-85
2023/07/07 03:34:30;;;;;;;1.90;1.27;;;;;;;;;;5036566;28;20238;-85
2023/07/07 03:36:56;;;;;;;1.63;1.20;;;;;;;;;;5049920;28;20036;-86
2023/07/07 03:39:22;;;;;;;2.45;1.63;;;;;;;;;;5048365;28;20082;-84
2023/07/07 03:41:48;;;;;;;1.63;1.10;;;;;;;;;;5048447;28;20036;-86
2023/07/07 03:44:15;;;;;;;2.78;1.33;;;;;;;;;;5049818;28;20021;-85
2023/07/07 03:46:41;;;;;;;2.75;1.90;;;;;;;;;;5055273;28;20021;-85
2023/07/07 03:49:07;;;;;;;5.07;2.13;;;;;;;;;;5045469;28;20407;-85
2023/07/07 03:51:35;;;;;;;2.30;1.30;;;;;;;;;;5050029;28;20021;-85
2023/07/07 03:54:01;;;;;;;4.30;1.42;;;;;;;;;;5048291;28;20021;-85
2023/07/07 03:56:27;;;;;;;1.65;1.42;;;;;;;;;;5055442;28;20017;-85
2023/07/07 03:58:53;;;;;;;2.90;1.40;;;;;;;;;;5053298;28;20028;-84
2023/07/07 04:01:19;;;;;;;1.92;1.30;;;;;;;;;;5045078;28;20013;-85
2023/07/07 04:03:47;;;;;;;3.97;1.10;;;;;;;;;;5039344;28;20480;-85
2023/07/07 04:06:13;;;;;;;1.60;1.30;;;;;;;;;;5053994;28;20174;-83
2023/07/07 04:08:39;;;;;;;1.77;1.27;;;;;;;;;;5046672;28;20162;-83
2023/07/07 04:11:05;;;;;;;1.77;1.23;;;;;;;;;;5050326;28;20025;-83
2023/07/07 04:13:35;;;;;;;1.92;1.42;;;;;;;;;;5050845;28;20025;-84
2023/07/07 04:16:06;;;;;;;2.08;1.40;;;;;;;;;;5053798;28;20040;-84
2023/07/07 04:18:33;;;;;;;1.55;1.42;;;;;;;;;;5047688;28;20025;-84
2023/07/07 04:21:05;;;;;;;2.13;1.52;;;;;;;;;;5050176;28;20063;-84
2023/07/07 04:23:31;;;;;;;2.20;1.17;;;;;;;;;;5050012;28;20501;-85
2023/07/07 04:25:57;;;;;;;2.22;1.15;;;;;;;;;;5054600;28;20033;-84
2023/07/07 04:28:26;;;;;;;1.30;1.10;;;;;;;;;;5042460;28;20036;-84
2023/07/07 04:30:53;;;;;;;2.55;1.30;;;;;;;;;;5052539;28;20575;-85
2023/07/07 04:33:19;;;;;;;2.65;1.27;;;;;;;;;;5039310;28;20128;-85
2023/07/07 04:35:45;;;;;;;1.80;1.30;;;;;;;;;;5049848;28;20514;-86
2023/07/07 04:38:11;;;;;;;1.70;1.40;;;;;;;;;;5047354;28;20035;-85
2023/07/07 04:40:37;;;;;;;1.83;1.40;;;;;;;;;;5051062;28;20029;-85
2023/07/07 04:43:03;;;;;;;1.35;1.15;;;;;;;;;;5045649;28;20037;-85
2023/07/07 04:45:33;;;;;;;2.58;1.35;;;;;;;;;;5048029;28;20021;-85
2023/07/07 04:47:59;;;;;;;1.60;1.20;;;;;;;;;;5042863;28;20025;-85
2023/07/07 04:50:24;;;;;;;1.55;1.15;;;;;;;;;;5049262;28;20115;-85
2023/07/07 04:52:50;;;;;;;5.07;1.60;;;;;;;;;;5042196;28;20021;-86
2023/07/07 04:55:16;;;;;;;1.67;1.30;;;;;;;;;;5050024;28;20045;-85
2023/07/07 04:57:42;;;;;;;2.13;1.40;;;;;;;;;;5050583;28;20020;-85
2023/07/07 05:00:09;;;;;;;1.38;1.20;;;;;;;;;;5045788;28;20036;-86
2023/07/07 05:02:35;;;;;;;1.80;1.33;;;;;;;;;;5046624;28;20025;-86
2023/07/07 05:05:01;;;;;;;1.58;1.23;;;;;;;;;;5050761;28;20025;-86
2023/07/07 05:07:28;;;;;;;1.15;1.02;;;;;;;;;;5053103;28;20095;-85
2023/07/07 05:09:54;;;;;;;2.10;1.40;;;;;;;;;;5055080;28;20089;-85
2023/07/07 05:12:20;;;;;;;2.05;1.25;;;;;;;;;;5048900;28;20509;-85
2023/07/07 05:14:46;;;;;;;1.00;0.90;;;;;;;;;;5043248;28;20052;-84
2023/07/07 05:17:12;;;;;;;2.00;1.35;;;;;;;;;;5046387;28;20112;-86
2023/07/07 05:19:38;;;;;;;3.60;1.45;;;;;;;;;;5036654;28;20135;-86
2023/07/07 05:22:04;;;;;;;3.78;1.30;;;;;;;;;;5047754;28;20028;-85
2023/07/07 05:24:35;;;;;;;1.77;1.25;;;;;;;;;;5046828;28;20031;-85
2023/07/07 05:27:01;;;;;;;2.10;1.55;;;;;;;;;;5041680;28;20033;-85
2023/07/07 05:29:27;;;;;;;2.20;1.60;;;;;;;;;;5054395;28;20395;-85
2023/07/07 05:31:53;;;;;;;2.25;1.30;;;;;;;;;;5050269;28;20016;-85
2023/07/07 05:34:19;;;;;;;1.60;1.50;;;;;;;;;;5048943;28;20059;-85
2023/07/07 05:36:45;;;;;;;1.95;1.13;;;;;;;;;;5037321;28;20434;-86
2023/07/07 05:39:11;;;;;;;2.20;1.50;;;;;;;;;;5050029;28;20502;-85
2023/07/07 05:41:37;;;;;;;1.50;1.40;;;;;;;;;;5052972;28;20054;-85
2023/07/07 05:44:03;;;;;;;1.95;1.15;;;;;;;;;;5054193;28;20025;-85
2023/07/07 05:46:29;;;;;;;1.17;1.08;;;;;;;;;;5049026;28;20498;-85
2023/07/07 05:49:01;;;;;;;1.20;1.10;;;;;;;;;;5051145;28;20017;-86
2023/07/07 05:51:27;;;;;;;1.60;1.10;;;;;;;;;;5039528;28;20021;-85
2023/07/07 05:53:53;;;;;;;1.98;1.40;;;;;;;;;;5050315;28;20621;-86
2023/07/07 05:56:20;;;;;;;1.20;1.10;;;;;;;;;;5032807;28;20013;-86
2023/07/07 05:58:49;;;;;;;1.60;1.48;;;;;;;;;;5048645;28;20021;-86
2023/07/07 06:01:15;;;;;;;1.55;1.30;;;;;;;;;;5037911;28;20026;-86
2023/07/07 06:03:41;;;;;;;2.75;1.52;;;;;;;;;;5046884;28;20040;-86
2023/07/07 06:06:07;;;;;;;1.90;1.10;;;;;;;;;;5040469;28;20021;-87
2023/07/07 06:08:33;;;;;;;1.92;1.55;;;;;;;;;;5048316;28;20052;-86
2023/07/07 06:10:59;;;;;;;1.90;1.33;;;;;;;;;;5048630;28;20027;-85
2023/07/07 06:13:27;;;;;;;1.88;1.30;;;;;;;;;;5045420;28;20113;-84
2023/07/07 06:15:53;;;;;;;2.28;1.45;;;;;;;;;;5029051;28;20025;-84
2023/07/07 06:18:20;;;;;;;1.30;1.17;;;;;;;;;;5047613;28;20388;-85
2023/07/07 06:20:53;;;;;;;2.50;1.55;;;;;;;;;;5046653;28;20037;-85
2023/07/07 06:23:19;;;;;;;1.20;1.10;;;;;;;;;;5058877;28;20033;-85
2023/07/07 06:25:47;;;;;;;1.55;1.20;;;;;;;;;;5053757;28;20035;-86
2023/07/07 06:28:19;;;;;;;1.95;1.38;;;;;;;;;;5030354;28;20021;-87
2023/07/07 06:30:48;;;;;;;2.28;1.50;;;;;;;;;;5055972;28;20024;-85
2023/07/07 06:33:14;;;;;;;1.90;1.52;;;;;;;;;;5053746;28;20627;-86
2023/07/07 06:35:40;;;;;;;1.60;1.20;;;;;;;;;;5043133;28;20051;-86
2023/07/07 06:38:06;;;;;;;5.28;1.30;;;;;;;;;;5040246;28;20074;-87
2023/07/07 06:40:32;;;;;;;2.08;1.40;;;;;;;;;;5062952;28;20029;-86
2023/07/07 06:42:58;;;;;;;1.02;0.90;;;;;;;;;;5036363;28;20040;-86
2023/07/07 06:45:24;;;;;;;1.25;0.93;;;;;;;;;;5042442;28;20033;-85
2023/07/07 06:47:50;;;;;;;2.08;1.30;;;;;;;;;;5046848;28;20027;-86
2023/07/07 06:50:20;;;;;;;2.65;1.40;;;;;;;;;;5048249;28;20025;-85
2023/07/07 06:52:45;;;;;;;1.75;1.13;;;;;;;;;;5044075;28;20034;-83
2023/07/07 06:55:12;;;;;;;3.50;1.55;;;;;;;;;;5041252;28;20029;-77
2023/07/07 06:57:38;;;;;;;1.50;1.15;;;;;;;;;;5050360;28;20522;-76
2023/07/07 07:00:04;;;;;;;1.27;1.05;;;;;;;;;;5048305;28;20036;-77
2023/07/07 07:02:30;;;;;;;1.10;0.98;;;;;;;;;;5046727;28;20108;-76
2023/07/07 07:04:55;;;;;;;1.27;1.00;;;;;;;;;;5040812;28;20033;-76
2023/07/07 07:07:21;;;;;;;0.80;0.80;;;;;;;;;;5051482;28;20029;-76
2023/07/07 07:09:50;;;;;;;1.73;1.27;;;;;;;;;;5036301;28;20033;-76
2023/07/07 07:12:16;;;;;;;1.60;1.25;;;;;;;;;;5044211;28;20037;-76
2023/07/07 07:14:42;;;;;;;0.90;0.88;;;;;;;;;;5049862;28;20032;-76
2023/07/07 07:17:09;;;;;;;1.00;0.90;;;;;;;;;;5048796;28;20043;-77
2023/07/07 07:19:35;;;;;;;1.35;1.10;;;;;;;;;;5045832;28;20587;-76
2023/07/07 07:22:01;;;;;;;1.70;1.35;;;;;;;;;;5043746;28;20034;-76
2023/07/07 07:24:27;;;;;;;0.90;0.80;;;;;;;;;;5055255;28;20021;-76
2023/07/07 07:26:52;;;;;;;1.67;1.40;;;;;;;;;;5060236;28;20013;-76
2023/07/07 07:29:18;;;;;;;5.28;1.10;;;;;;;;;;5055578;28;20021;-76
2023/07/07 07:31:44;;;;;;;0.90;0.90;;;;;;;;;;5040145;28;20476;-76
2023/07/07 07:34:25;;;;;;;1.10;0.90;;;;;;;;;;5047122;28;20025;-77
2023/07/07 07:36:54;;;;;;;2.20;1.60;;;;;;;;;;5052746;28;20029;-77
2023/07/07 07:39:20;;;;;;;1.63;1.20;;;;;;;;;;5042833;28;20250;-77
2023/07/07 07:41:50;;;;;;;3.35;1.20;;;;;;;;;;5039849;28;20057;-77
2023/07/07 07:44:16;;;;;;;2.85;1.20;;;;;;;;;;5033420;28;20029;-77
2023/07/07 07:46:43;;;;;;;1.38;1.00;;;;;;;;;;5030835;28;20071;-77
2023/07/07 07:49:09;;;;;;;1.65;1.17;;;;;;;;;;5031264;28;20094;-77
2023/07/07 07:51:39;;;;;;;0.95;0.90;;;;;;;;;;5042410;28;20013;-77
2023/07/07 07:54:06;;;;;;;1.77;1.25;;;;;;;;;;5032441;28;20056;-77
2023/07/07 07:56:32;;;;;;;1.60;1.00;;;;;;;;;;5031243;28;20034;-75
2023/07/07 07:58:58;;;;;;;1.75;1.10;;;;;;;;;;5046400;28;20541;-76
2023/07/07 08:01:24;;;;;;;2.42;1.25;;;;;;;;;;5038977;28;20080;-77
2023/07/07 08:03:50;;;;;;;2.03;0.95;;;;;;;;;;5030656;28;20036;-77
2023/07/07 08:06:16;;;;;;;4.28;0.98;;;;;;;;;;5030998;28;20018;-77
2023/07/07 08:08:42;;;;;;;1.20;1.10;;;;;;;;;;5030807;28;20014;-77
2023/07/07 08:11:12;;;;;;;1.27;1.10;;;;;;;;;;5037766;28;20028;-77
2023/07/07 08:13:38;;;;;;;0.80;0.80;;;;;;;;;;5044717;28;20041;-76
2023/07/07 08:16:04;;;;;;;1.08;0.95;;;;;;;;;;5030358;28;20037;-77
2023/07/07 08:18:30;;;;;;;1.20;1.02;;;;;;;;;;5030591;28;20698;-77
2023/07/07 08:20:56;;;;;;;1.52;1.08;;;;;;;;;;5046724;28;20049;-76
2023/07/07 08:23:24;;;;;;;1.35;1.13;;;;;;;;;;5030361;28;20029;-77
2023/07/07 08:25:53;;;;;;;1.70;1.10;;;;;;;;;;5030440;28;20030;-76
2023/07/07 08:28:19;;;;;;;1.27;1.10;;;;;;;;;;5050166;28;20025;-76
2023/07/07 08:30:45;;;;;;;1.20;0.80;;;;;;;;;;5049163;28;20021;-76
2023/07/07 08:33:12;;;;;;;1.02;0.93;;;;;;;;;;5030736;28;20029;-77
2023/07/07 08:35:38;;;;;;;1.02;0.90;;;;;;;;;;5045645;28;20407;-76
2023/07/07 08:38:04;;;;;;;1.38;0.98;;;;;;;;;;5030637;28;20033;-77
2023/07/07 08:40:35;;;;;;;2.05;1.27;;;;;;;;;;5030503;28;20492;-76
2023/07/07 08:43:01;;;;;;;0.95;0.90;;;;;;;;;;5048345;28;20032;-76
2023/07/07 08:45:27;;;;;;;1.63;1.52;;;;;;;;;;5037828;28;20022;-76
2023/07/07 08:47:58;;;;;;;1.08;0.82;;;;;;;;;;5030138;28;20092;-77
2023/07/07 08:50:30;;;;;;;1.13;1.00;;;;;;;;;;5035836;28;20030;-77
2023/07/07 08:53:15;;;;;;;0.93;0.80;;;;;;;;;;5040846;28;20537;-76
2023/07/07 08:55:56;;;;;;;1.15;0.88;;;;;;;;;;5047121;28;20025;-77
2023/07/07 08:58:41;;;;;;;1.92;1.20;;;;;;;;;;5041631;28;20041;-76
2023/07/07 09:01:16;;;;;;;1.85;1.00;;;;;;;;;;5041552;28;20799;-76
2023/07/07 09:03:51;;;;;;;1.25;1.00;;;;;;;;;;5029803;28;20481;-77
2023/07/07 09:06:34;;;;;;;1.35;1.10;;;;;;;;;;5030118;28;20459;-76
2023/07/07 09:09:11;;;;;;;1.02;0.93;;;;;;;;;;5037599;28;20051;-77
2023/07/07 09:11:37;;;;;;;1.38;0.82;;;;;;;;;;5034996;28;20021;-76
2023/07/07 09:14:04;;;;;;;1.20;1.10;;;;;;;;;;5030080;28;20025;-76
2023/07/07 09:16:32;;;;;;;1.33;1.00;;;;;;;;;;5029837;28;20037;-76
2023/07/07 09:18:58;;;;;;;1.02;0.68;;;;;;;;;;5031675;28;20079;-76
2023/07/07 09:21:43;;;;;;;1.10;0.80;;;;;;;;;;5044410;28;20061;-76
2023/07/07 09:24:33;;;;;;;1.65;0.93;;;;;;;;;;5047048;28;20098;-75
2023/07/07 09:27:02;;;;;;;1.40;1.08;;;;;;;;;;5049170;28;20017;-75
2023/07/07 09:29:29;;;;;;;3.20;1.00;;;;;;;;;;5049625;28;20036;-75
2023/07/07 09:31:57;;;;;;;1.30;1.05;;;;;;;;;;5048883;28;20074;-75
2023/07/07 09:34:24;;;;;;;1.00;0.80;;;;;;;;;;5032769;28;20034;-75
2023/07/07 09:36:55;;;;;;;1.10;0.82;;;;;;;;;;5029176;28;20097;-75
2023/07/07 09:39:21;;;;;;;1.33;0.95;;;;;;;;;;5029279;28;20026;-75
2023/07/07 09:42:01;;;;;;;1.10;0.85;;;;;;;;;;5029281;28;20168;-76
2023/07/07 09:44:45;;;;;;;0.77;0.77;;;;;;;;;;5038712;28;20415;-75
2023/07/07 09:47:22;;;;;;;0.80;0.80;;;;;;;;;;5049052;28;20029;-76
2023/07/07 09:49:58;;;;;;;1.67;1.10;;;;;;;;;;5049150;28;20033;-76
2023/07/07 09:52:36;;;;;;;1.00;0.90;;;;;;;;;;5048970;28;20029;-76
2023/07/07 09:55:03;;;;;;;0.95;0.82;;;;;;;;;;5035491;28;20034;-76
2023/07/07 09:57:37;;;;;;;0.82;0.82;;;;;;;;;;5029334;28;20100;-76
2023/07/07 10:00:05;;;;;;;3.90;1.58;;;;;;;;;;5028698;28;20033;-76
2023/07/07 10:02:31;;;;;;;1.15;1.00;;;;;;;;;;5029238;28;20026;-76
2023/07/07 10:05:02;;;;;;;1.10;0.98;;;;;;;;;;5037943;28;20419;-76
2023/07/07 10:07:30;;;;;;;1.08;0.93;;;;;;;;;;5029033;28;20021;-76
2023/07/07 10:09:58;;;;;;;3.03;1.02;;;;;;;;;;5028377;28;20120;-76
2023/07/07 10:12:24;;;;;;;0.65;0.65;;;;;;;;;;5028949;28;20143;-76
2023/07/07 10:14:50;;;;;;;1.23;0.90;;;;;;;;;;5031079;28;20051;-77
2023/07/07 10:17:26;;;;;;;1.10;1.00;;;;;;;;;;5038992;28;20040;-77
2023/07/07 10:19:59;;;;;;;1.27;1.08;;;;;;;;;;5036944;28;20060;-76
2023/07/07 10:22:25;;;;;;;2.70;1.13;;;;;;;;;;5047295;28;20025;-76
2023/07/07 10:24:51;;;;;;;0.73;0.63;;;;;;;;;;5030424;28;20428;-76
2023/07/07 10:27:19;;;;;;;1.45;1.20;;;;;;;;;;5040434;28;20027;-76
2023/07/07 10:29:46;;;;;;;1.52;0.90;;;;;;;;;;5048394;28;20480;-76
2023/07/07 10:32:22;;;;;;;1.30;0.90;;;;;;;;;;5047825;28;20036;-77
2023/07/07 10:34:49;;;;;;;1.45;1.08;;;;;;;;;;5047058;28;20174;-77
2023/07/07 10:37:22;;;;;;;1.13;0.95;;;;;;;;;;5048837;28;20028;-76
2023/07/07 10:39:52;;;;;;;1.60;1.00;;;;;;;;;;5040194;28;20069;-76
2023/07/07 10:42:23;;;;;;;1.00;0.75;;;;;;;;;;5030301;28;20061;-77
2023/07/07 10:44:49;;;;;;;2.20;1.25;;;;;;;;;;5035669;28;20036;-76
2023/07/07 10:47:18;;;;;;;1.58;0.80;;;;;;;;;;5033497;28;20041;-77
2023/07/07 10:49:44;;;;;;;0.77;0.77;;;;;;;;;;5028404;28;20036;-76
2023/07/07 10:52:21;;;;;;;0.90;0.90;;;;;;;;;;5028249;28;20384;-76
2023/07/07 10:54:57;;;;;;;0.70;0.70;;;;;;;;;;5039419;28;20050;-76
2023/07/07 10:57:23;;;;;;;1.85;1.05;;;;;;;;;;5029956;28;20415;-76
2023/07/07 10:59:55;;;;;;;0.63;0.63;;;;;;;;;;5028170;28;20030;-77
2023/07/07 11:02:30;;;;;;;1.05;0.95;;;;;;;;;;5028305;28;20033;-77
2023/07/07 11:05:19;;;;;;;1.50;0.90;;;;;;;;;;5031574;28;20040;-77
2023/07/07 11:07:59;;;;;;;1.10;0.73;;;;;;;;;;5031812;28;20041;-77
2023/07/07 11:10:34;;;;;;;1.08;0.98;;;;;;;;;;5028261;28;20026;-77
2023/07/07 11:13:04;;;;;;;0.70;0.63;;;;;;;;;;5028317;28;20872;-76
2023/07/07 11:15:38;;;;;;;1.00;0.90;;;;;;;;;;5028311;28;20018;-76
2023/07/07 11:18:18;;;;;;;0.93;0.90;;;;;;;;;;5038778;28;20167;-77
2023/07/07 11:20:44;;;;;;;1.33;0.93;;;;;;;;;;5044610;28;20053;-76
2023/07/07 11:23:15;;;;;;;0.98;0.90;;;;;;;;;;5046233;28;20035;-77
2023/07/07 11:25:59;;;;;;;1.50;1.02;;;;;;;;;;5036841;28;20025;-77
2023/07/07 11:28:25;;;;;;;0.60;0.60;;;;;;;;;;5035851;28;20032;-76
2023/07/07 11:31:09;;;;;;;1.05;0.75;;;;;;;;;;5048073;28;20029;-76
2023/07/07 11:33:49;;;;;;;1.27;0.95;;;;;;;;;;5047115;28;20487;-77
2023/07/07 11:36:24;;;;;;;1.58;0.80;;;;;;;;;;5039672;28;20076;-76
2023/07/07 11:39:00;;;;;;;1.15;0.80;;;;;;;;;;5028206;28;20033;-77
2023/07/07 11:41:39;;;;;;;1.20;0.80;;;;;;;;;;5028250;28;20136;-76
2023/07/07 11:44:14;;;;;;;0.60;0.60;;;;;;;;;;5029887;28;20045;-76
2023/07/07 11:46:43;;;;;;;0.95;0.88;;;;;;;;;;5037678;28;20029;-76
2023/07/07 11:49:12;;;;;;;0.90;0.90;;;;;;;;;;5027401;28;20029;-76
2023/07/07 11:52:04;;;;;;;0.95;0.85;;;;;;;;;;5027762;28;20036;-77
2023/07/07 11:54:54;;;;;;;1.23;0.65;;;;;;;;;;5020469;28;20178;-76
2023/07/07 11:57:23;;;;;;;0.70;0.65;;;;;;;;;;5041307;28;20033;-77
2023/07/07 11:59:58;;;;;;;5.45;0.90;;;;;;;;;;5031342;28;20017;-76
2023/07/07 12:02:28;;;;;;;1.10;0.75;;;;;;;;;;5041283;28;20043;-79
2023/07/07 12:04:56;;;;;;;1.48;0.70;;;;;;;;;;5060173;28;20074;-78
2023/07/07 12:07:25;;;;;;;1.08;0.90;;;;;;;;;;5031571;28;20358;-78
2023/07/07 12:09:53;;;;;;;0.82;0.82;;;;;;;;;;5031151;28;20026;-78
2023/07/07 12:12:37;;;;;;;1.00;0.90;;;;;;;;;;5039979;28;20033;-81
2023/07/07 12:15:10;;;;;;;1.10;0.80;;;;;;;;;;5048950;28;20040;-80
2023/07/07 12:17:38;;;;;;;1.10;1.00;;;;;;;;;;5051177;28;20056;-79
2023/07/07 12:20:05;;;;;;;1.50;0.90;;;;;;;;;;5050961;28;20032;-79
2023/07/07 12:22:35;;;;;;;0.98;0.80;;;;;;;;;;5048741;28;20025;-80
2023/07/07 12:25:06;;;;;;;1.48;1.17;;;;;;;;;;5052949;28;20024;-78
2023/07/07 12:27:42;;;;;;;0.77;0.77;;;;;;;;;;5055793;28;20025;-77
2023/07/07 12:30:15;;;;;;;0.80;0.80;;;;;;;;;;5048833;28;20449;-77
2023/07/07 12:32:41;;;;;;;0.80;0.80;;;;;;;;;;5045229;28;20017;-79
2023/07/07 12:35:13;;;;;;;2.45;0.80;;;;;;;;;;5030989;28;20384;-76
2023/07/07 12:37:39;;;;;;;0.80;0.80;;;;;;;;;;5030810;28;20588;-77
2023/07/07 12:40:11;;;;;;;0.80;0.80;;;;;;;;;;5030441;28;20021;-77
2023/07/07 12:42:41;;;;;;;1.00;1.00;;;;;;;;;;5047341;28;20032;-77
2023/07/07 12:45:30;;;;;;;1.73;0.98;;;;;;;;;;5046520;28;20641;-78
2023/07/07 12:48:07;;;;;;;2.45;1.35;;;;;;;;;;5045754;28;20528;-78
2023/07/07 12:50:40;;;;;;;3.20;1.50;;;;;;;;;;5043821;28;20081;-78
2023/07/07 12:53:27;;;;;;;2.35;1.35;;;;;;;;;;5030416;28;20025;-79
2023/07/07 12:56:05;;;;;;;2.50;1.50;;;;;;;;;;5036634;28;20029;-76
2023/07/07 12:58:37;;;;;;;2.47;1.40;;;;;;;;;;5030359;28;20053;-79
2023/07/07 13:01:23;;;;;;;1.65;1.25;;;;;;;;;;5041762;28;20133;-78
2023/07/07 13:04:08;;;;;;;2.03;1.40;;;;;;;;;;5033284;28;20057;-77
2023/07/07 13:06:52;;;;;;;2.80;1.52;;;;;;;;;;5041825;28;20029;-78
2023/07/07 13:09:20;;;;;;;2.65;1.17;;;;;;;;;;5038778;28;20105;-78
2023/07/07 13:11:46;;;;;;;1.85;1.20;;;;;;;;;;5048941;28;20115;-78
2023/07/07 13:14:32;;;;;;;2.53;1.42;;;;;;;;;;5041549;28;20021;-78
2023/07/07 13:16:59;;;;;;;1.50;1.40;;;;;;;;;;5039510;28;20147;-79
2023/07/07 13:19:25;;;;;;;2.45;1.27;;;;;;;;;;5055465;28;20098;-79
2023/07/07 13:21:52;;;;;;;1.10;1.00;;;;;;;;;;5049880;28;20043;-78
2023/07/07 13:24:20;;;;;;;1.20;1.10;;;;;;;;;;5046594;28;20105;-79
2023/07/07 13:26:46;;;;;;;3.00;1.50;;;;;;;;;;5047822;28;20013;-79
2023/07/07 13:29:12;;;;;;;1.50;1.40;;;;;;;;;;5055181;28;20368;-79
2023/07/07 13:31:39;;;;;;;2.25;1.13;;;;;;;;;;5052122;28;20079;-77
2023/07/07 13:34:06;;;;;;;1.88;1.40;;;;;;;;;;5056639;28;20438;-78
2023/07/07 13:36:32;;;;;;;1.98;1.30;;;;;;;;;;5057889;28;20171;-77
2023/07/07 13:38:58;;;;;;;2.10;1.33;;;;;;;;;;5051290;28;20153;-78
2023/07/07 13:41:25;;;;;;;2.75;1.90;;;;;;;;;;5053562;28;20586;-78
2023/07/07 13:43:55;;;;;;;1.52;1.13;;;;;;;;;;5048176;28;20033;-78
2023/07/07 13:46:25;;;;;;;2.28;1.30;;;;;;;;;;5057358;28;20493;-78
2023/07/07 13:49:01;;;;;;;1.65;1.20;;;;;;;;;;5056203;28;20029;-78
2023/07/07 13:51:29;;;;;;;3.50;1.45;;;;;;;;;;5045100;28;20741;-78
2023/07/07 13:53:56;;;;;;;1.35;1.23;;;;;;;;;;5047849;28;20476;-78
2023/07/07 13:56:22;;;;;;;2.03;1.50;;;;;;;;;;5052243;28;20033;-78
2023/07/07 13:58:50;;;;;;;3.05;1.52;;;;;;;;;;5053168;28;20033;-78
2023/07/07 14:01:20;;;;;;;2.35;1.45;;;;;;;;;;5049104;28;20067;-78
2023/07/07 14:03:47;;;;;;;2.22;1.35;;;;;;;;;;5043628;28;20087;-78
2023/07/07 14:06:15;;;;;;;3.33;1.80;;;;;;;;;;5047892;28;20024;-75
2023/07/07 14:08:41;;;;;;;2.53;1.48;;;;;;;;;;5050808;28;20112;-77
2023/07/07 14:11:13;;;;;;;2.15;1.42;;;;;;;;;;5046293;28;20120;-77
2023/07/07 14:13:38;;;;;;;2.85;1.33;;;;;;;;;;5051366;28;20139;-78
2023/07/07 14:16:12;;;;;;;1.73;1.35;;;;;;;;;;5052391;28;20037;-80
2023/07/07 14:18:41;;;;;;;1.55;1.17;;;;;;;;;;5053489;28;20063;-75
2023/07/07 14:21:08;;;;;;;2.33;1.45;;;;;;;;;;5045391;28;20147;-78
2023/07/07 14:23:34;;;;;;;1.77;1.38;;;;;;;;;;5044988;28;20442;-79
2023/07/07 14:26:00;;;;;;;2.70;1.45;;;;;;;;;;5052186;28;20133;-77
2023/07/07 14:28:32;;;;;;;3.20;1.83;;;;;;;;;;5051699;28;20020;-75
2023/07/07 14:31:03;;;;;;;2.45;1.40;;;;;;;;;;5048634;28;20123;-75
2023/07/07 14:33:31;;;;;;;3.80;1.77;;;;;;;;;;5041235;28;20043;-78
2023/07/07 14:35:58;;;;;;;4.20;2.00;;;;;;;;;;5046243;28;20442;-78
2023/07/07 14:38:24;;;;;;;3.15;1.77;;;;;;;;;;5060032;28;20513;-75
2023/07/07 14:40:53;;;;;;;2.65;1.60;;;;;;;;;;5043136;28;20060;-74
2023/07/07 14:43:24;;;;;;;2.50;1.50;;;;;;;;;;5054192;28;20032;-75
2023/07/07 14:46:01;;;;;;;2.33;1.45;;;;;;;;;;5054214;28;20025;-76
2023/07/07 14:48:29;;;;;;;2.60;1.67;;;;;;;;;;5055120;28;20050;-74
2023/07/07 14:50:55;;;;;;;2.72;1.83;;;;;;;;;;5050583;28;20071;-75
2023/07/07 14:53:22;;;;;;;2.45;1.52;;;;;;;;;;5057811;28;20380;-75
2023/07/07 14:55:49;;;;;;;4.45;2.00;;;;;;;;;;5045292;28;20037;-75
2023/07/07 14:58:20;;;;;;;4.60;1.88;;;;;;;;;;5047770;28;20043;-75